sensor_id;sensor_type;location;lat;lon;timestamp;temperature;humidity
9941;DHT22;5009;50.656;7.188;2024-02-21T05:02:05;8.80;99.90
9941;DHT22;5009;50.656;7.188;2024-02-21T05:04:31;8.90;99.90
9941;DHT22;5009;50.656;7.188;2024-02-21T05:06:56;9.00;99.90
9941;DHT22;5009;50.656;7.188;2024-02-21T05:09:22;9.00;99.90
9941;DHT22;5009;50.656;7.188;2024-02-21T05:11:47;9.00;99.90
9941;DHT22;5009;50.656;7.188;2024-02-21T05:14:13;9.10;99.90
9941;DHT22;5009;50.656;7.188;2024-02-21T05:16:39;9.00;99.90
9941;DHT22;5009;50.656;7.188;2024-02-21T05:19:05;9.00;99.90
9941;DHT22;5009;50.656;7.188;2024-02-21T05:21:30;9.00;99.90
9941;DHT22;5009;50.656;7.188;2024-02-21T05:23:56;9.10;99.90
9941;DHT22;5009;50.656;7.188;2024-02-21T05:26:25;9.10;99.90
9941;DHT22;5009;50.656;7.188;2024-02-21T05:28:51;9.20;99.90
9941;DHT22;5009;50.656;7.188;2024-02-21T05:31:20;9.20;99.90
9941;DHT22;5009;50.656;7.188;2024-02-21T05:33:47;9.10;99.90
9941;DHT22;5009;50.656;7.188;2024-02-21T05:36:13;9.10;99.90
9941;DHT22;5009;50.656;7.188;2024-02-21T05:38:39;9.20;99.90
9941;DHT22;5009;50.656;7.188;2024-02-21T05:41:05;9.20;99.90
9941;DHT22;5009;50.656;7.188;2024-02-21T05:43:31;9.20;99.90
9941;DHT22;5009;50.656;7.188;2024-02-21T05:45:57;9.10;99.90
9941;DHT22;5009;50.656;7.188;2024-02-21T05:48:23;9.10;99.90
9941;DHT22;5009;50.656;7.188;2024-02-21T05:50:49;9.10;99.90
9941;DHT22;5009;50.656;7.188;2024-02-21T05:53:15;9.10;99.90
9941;DHT22;5009;50.656;7.188;2024-02-21T05:55:40;9.10;99.90
9941;DHT22;5009;50.656;7.188;2024-02-21T05:58:06;9.00;99.90
9941;DHT22;5009;50.656;7.188;2024-02-21T06:00:32;9.00;99.90
9941;DHT22;5009;50.656;7.188;2024-02-21T06:02:58;9.10;99.90
9941;DHT22;5009;50.656;7.188;2024-02-21T06:05:23;9.10;99.90
9941;DHT22;5009;50.656;7.188;2024-02-21T06:07:49;9.10;99.90
9941;DHT22;5009;50.656;7.188;2024-02-21T06:10:14;9.10;99.90
9941;DHT22;5009;50.656;7.188;2024-02-21T06:12:40;9.20;99.90
9941;DHT22;5009;50.656;7.188;2024-02-21T06:15:06;9.20;99.90
9941;DHT22;5009;50.656;7.188;2024-02-21T06:17:32;9.30;99.90
9941;DHT22;5009;50.656;7.188;2024-02-21T06:19:57;9.30;99.90
9941;DHT22;5009;50.656;7.188;2024-02-21T06:22:23;9.30;99.90
9941;DHT22;5009;50.656;7.188;2024-02-21T06:24:48;9.40;99.90
9941;DHT22;5009;50.656;7.188;2024-02-21T06:27:15;9.30;99.90
9941;DHT22;5009;50.656;7.188;2024-02-21T06:29:41;9.30;99.90
9941;DHT22;5009;50.656;7.188;2024-02-21T06:32:07;9.20;99.90
9941;DHT22;5009;50.656;7.188;2024-02-21T06:34:32;9.20;99.90
9941;DHT22;5009;50.656;7.188;2024-02-21T06:36:58;9.10;99.90
9941;DHT22;5009;50.656;7.188;2024-02-21T06:39:24;9.20;99.90
9941;DHT22;5009;50.656;7.188;2024-02-21T06:41:50;9.10;99.90
9941;DHT22;5009;50.656;7.188;2024-02-21T06:44:19;9.10;99.90
9941;DHT22;5009;50.656;7.188;2024-02-21T06:46:44;9.10;99.90
9941;DHT22;5009;50.656;7.188;2024-02-21T06:49:10;9.10;99.90
9941;DHT22;5009;50.656;7.188;2024-02-21T06:51:42;9.10;99.90
9941;DHT22;5009;50.656;7.188;2024-02-21T06:54:08;9.20;99.90
9941;DHT22;5009;50.656;7.188;2024-02-21T06:56:35;9.20;99.90
9941;DHT22;5009;50.656;7.188;2024-02-21T06:59:01;9.20;99.90
9941;DHT22;5009;50.656;7.188;2024-02-21T07:01:26;9.20;99.90
9941;DHT22;5009;50.656;7.188;2024-02-21T07:03:52;9.30;99.90
9941;DHT22;5009;50.656;7.188;2024-02-21T07:06:18;9.30;99.90
9941;DHT22;5009;50.656;7.188;2024-02-21T07:08:43;9.30;99.90
9941;DHT22;5009;50.656;7.188;2024-02-21T07:11:09;9.30;99.90
9941;DHT22;5009;50.656;7.188;2024-02-21T07:13:34;9.30;99.90
9941;DHT22;5009;50.656;7.188;2024-02-21T07:16:00;9.40;99.90
9941;DHT22;5009;50.656;7.188;2024-02-21T07:18:25;9.40;99.90
9941;DHT22;5009;50.656;7.188;2024-02-21T07:20:51;9.40;99.90
9941;DHT22;5009;50.656;7.188;2024-02-21T07:23:18;9.40;99.90
9941;DHT22;5009;50.656;7.188;2024-02-21T07:25:43;9.50;99.90
9941;DHT22;5009;50.656;7.188;2024-02-21T07:28:09;9.50;99.90
9941;DHT22;5009;50.656;7.188;2024-02-21T07:30:35;9.40;99.90
9941;DHT22;5009;50.656;7.188;2024-02-21T07:33:00;9.40;99.90
9941;DHT22;5009;50.656;7.188;2024-02-21T07:35:26;9.50;99.90
9941;DHT22;5009;50.656;7.188;2024-02-21T07:37:51;9.50;99.90
9941;DHT22;5009;50.656;7.188;2024-02-21T07:40:17;9.60;99.90
9941;DHT22;5009;50.656;7.188;2024-02-21T07:42:43;9.60;99.90
9941;DHT22;5009;50.656;7.188;2024-02-21T07:45:09;9.50;99.80
9941;DHT22;5009;50.656;7.188;2024-02-21T07:47:35;9.50;99.60
9941;DHT22;5009;50.656;7.188;2024-02-21T07:50:02;9.60;99.60
9941;DHT22;5009;50.656;7.188;2024-02-21T07:52:28;9.70;99.50
9941;DHT22;5009;50.656;7.188;2024-02-21T07:54:54;9.70;98.90
9941;DHT22;5009;50.656;7.188;2024-02-21T07:57:20;9.70;99.00
9941;DHT22;5009;50.656;7.188;2024-02-21T07:59:45;9.70;98.80
9941;DHT22;5009;50.656;7.188;2024-02-21T08:02:14;9.70;98.40
9941;DHT22;5009;50.656;7.188;2024-02-21T08:04:39;9.60;98.40
9941;DHT22;5009;50.656;7.188;2024-02-21T08:07:05;9.70;98.90
9941;DHT22;5009;50.656;7.188;2024-02-21T08:09:30;9.60;98.60
9941;DHT22;5009;50.656;7.188;2024-02-21T08:11:56;9.50;98.20
9941;DHT22;5009;50.656;7.188;2024-02-21T08:14:22;9.50;98.20
9941;DHT22;5009;50.656;7.188;2024-02-21T08:16:48;9.60;98.00
9941;DHT22;5009;50.656;7.188;2024-02-21T08:19:13;9.60;97.70
9941;DHT22;5009;50.656;7.188;2024-02-21T08:21:39;9.70;97.50
9941;DHT22;5009;50.656;7.188;2024-02-21T08:24:05;9.70;97.10
9941;DHT22;5009;50.656;7.188;2024-02-21T08:26:30;9.80;97.20
9941;DHT22;5009;50.656;7.188;2024-02-21T08:28:57;9.90;97.00
9941;DHT22;5009;50.656;7.188;2024-02-21T08:31:26;9.80;96.60
9941;DHT22;5009;50.656;7.188;2024-02-21T08:33:57;9.80;96.70
9941;DHT22;5009;50.656;7.188;2024-02-21T08:36:28;9.90;96.80
9941;DHT22;5009;50.656;7.188;2024-02-21T08:38:54;9.90;96.70
9941;DHT22;5009;50.656;7.188;2024-02-21T08:41:20;9.90;96.40
9941;DHT22;5009;50.656;7.188;2024-02-21T08:43:48;10.00;95.80
9941;DHT22;5009;50.656;7.188;2024-02-21T08:46:14;10.00;95.80
9941;DHT22;5009;50.656;7.188;2024-02-21T08:48:40;10.10;95.40
9941;DHT22;5009;50.656;7.188;2024-02-21T08:51:05;10.00;95.30
9941;DHT22;5009;50.656;7.188;2024-02-21T08:53:31;10.00;95.80
9941;DHT22;5009;50.656;7.188;2024-02-21T08:55:57;10.10;95.60
9941;DHT22;5009;50.656;7.188;2024-02-21T08:58:22;10.20;95.10
9941;DHT22;5009;50.656;7.188;2024-02-21T09:00:49;10.30;95.20
9941;DHT22;5009;50.656;7.188;2024-02-21T09:03:15;10.40;95.10
9941;DHT22;5009;50.656;7.188;2024-02-21T09:05:43;10.50;94.80
9941;DHT22;5009;50.656;7.188;2024-02-21T09:08:08;10.60;94.20
9941;DHT22;5009;50.656;7.188;2024-02-21T09:10:34;10.50;93.90
9941;DHT22;5009;50.656;7.188;2024-02-21T09:13:00;10.50;93.70
9941;DHT22;5009;50.656;7.188;2024-02-21T09:15:25;10.60;93.90
9941;DHT22;5009;50.656;7.188;2024-02-21T09:17:52;10.80;93.60
9941;DHT22;5009;50.656;7.188;2024-02-21T09:20:17;10.80;93.40
9941;DHT22;5009;50.656;7.188;2024-02-21T09:22:43;11.00;93.60
9941;DHT22;5009;50.656;7.188;2024-02-21T09:25:09;11.20;93.30
9941;DHT22;5009;50.656;7.188;2024-02-21T09:27:37;11.40;92.80
9941;DHT22;5009;50.656;7.188;2024-02-21T09:30:03;11.60;92.60
9941;DHT22;5009;50.656;7.188;2024-02-21T09:32:30;11.80;92.30
9941;DHT22;5009;50.656;7.188;2024-02-21T09:34:55;12.00;91.90
9941;DHT22;5009;50.656;7.188;2024-02-21T09:37:21;11.90;91.90
9941;DHT22;5009;50.656;7.188;2024-02-21T09:39:47;11.80;91.40
9941;DHT22;5009;50.656;7.188;2024-02-21T09:42:14;11.40;91.70
9941;DHT22;5009;50.656;7.188;2024-02-21T09:44:44;11.50;92.30
9941;DHT22;5009;50.656;7.188;2024-02-21T09:47:40;11.40;92.50
9941;DHT22;5009;50.656;7.188;2024-02-21T09:50:05;11.40;92.40
9941;DHT22;5009;50.656;7.188;2024-02-21T09:52:32;11.20;92.30
9941;DHT22;5009;50.656;7.188;2024-02-21T09:54:59;11.10;92.30
9941;DHT22;5009;50.656;7.188;2024-02-21T09:57:26;11.00;92.40
9941;DHT22;5009;50.656;7.188;2024-02-21T09:59:53;11.00;92.80
9941;DHT22;5009;50.656;7.188;2024-02-21T10:02:18;11.00;92.30
9941;DHT22;5009;50.656;7.188;2024-02-21T10:04:44;11.00;92.70
9941;DHT22;5009;50.656;7.188;2024-02-21T10:07:10;11.10;92.30
9941;DHT22;5009;50.656;7.188;2024-02-21T10:09:36;11.00;92.20
9941;DHT22;5009;50.656;7.188;2024-02-21T10:12:09;11.00;92.30
9941;DHT22;5009;50.656;7.188;2024-02-21T10:14:36;11.20;92.50
9941;DHT22;5009;50.656;7.188;2024-02-21T10:17:02;11.20;91.90
9941;DHT22;5009;50.656;7.188;2024-02-21T10:19:29;11.00;91.90
9941;DHT22;5009;50.656;7.188;2024-02-21T10:22:10;11.00;92.00
9941;DHT22;5009;50.656;7.188;2024-02-21T10:24:36;11.00;92.00
9941;DHT22;5009;50.656;7.188;2024-02-21T10:27:09;11.00;92.20
9941;DHT22;5009;50.656;7.188;2024-02-21T10:29:36;11.20;92.20
9941;DHT22;5009;50.656;7.188;2024-02-21T10:32:06;11.20;92.00
9941;DHT22;5009;50.656;7.188;2024-02-21T10:34:33;11.20;91.90
9941;DHT22;5009;50.656;7.188;2024-02-21T10:37:09;11.30;91.40
9941;DHT22;5009;50.656;7.188;2024-02-21T10:39:37;11.20;91.70
9941;DHT22;5009;50.656;7.188;2024-02-21T10:42:03;11.40;91.40
9941;DHT22;5009;50.656;7.188;2024-02-21T10:44:31;11.50;91.10
9941;DHT22;5009;50.656;7.188;2024-02-21T10:46:57;11.40;91.10
9941;DHT22;5009;50.656;7.188;2024-02-21T10:49:24;11.50;91.10
9941;DHT22;5009;50.656;7.188;2024-02-21T10:52:15;11.60;91.00
9941;DHT22;5009;50.656;7.188;2024-02-21T10:54:49;11.90;91.00
9941;DHT22;5009;50.656;7.188;2024-02-21T10:57:17;12.00;90.70
9941;DHT22;5009;50.656;7.188;2024-02-21T10:59:45;12.10;90.60
9941;DHT22;5009;50.656;7.188;2024-02-21T11:02:12;12.10;90.60
9941;DHT22;5009;50.656;7.188;2024-02-21T11:04:38;12.30;90.20
9941;DHT22;5009;50.656;7.188;2024-02-21T11:07:06;12.30;90.10
9941;DHT22;5009;50.656;7.188;2024-02-21T11:09:32;12.30;89.70
9941;DHT22;5009;50.656;7.188;2024-02-21T11:11:58;12.30;89.80
9941;DHT22;5009;50.656;7.188;2024-02-21T11:14:27;12.50;90.00
9941;DHT22;5009;50.656;7.188;2024-02-21T11:16:53;12.20;89.00
9941;DHT22;5009;50.656;7.188;2024-02-21T11:19:28;12.20;89.20
9941;DHT22;5009;50.656;7.188;2024-02-21T11:21:58;12.30;89.80
9941;DHT22;5009;50.656;7.188;2024-02-21T11:24:31;12.20;88.90
9941;DHT22;5009;50.656;7.188;2024-02-21T11:27:15;12.10;89.00
9941;DHT22;5009;50.656;7.188;2024-02-21T11:29:46;12.20;89.10
9941;DHT22;5009;50.656;7.188;2024-02-21T11:32:14;12.00;88.90
9941;DHT22;5009;50.656;7.188;2024-02-21T11:34:41;11.90;89.50
9941;DHT22;5009;50.656;7.188;2024-02-21T11:37:14;11.90;90.00
9941;DHT22;5009;50.656;7.188;2024-02-21T11:39:42;12.00;90.00
9941;DHT22;5009;50.656;7.188;2024-02-21T11:42:08;11.90;90.00
9941;DHT22;5009;50.656;7.188;2024-02-21T11:44:35;11.90;89.90
9941;DHT22;5009;50.656;7.188;2024-02-21T11:47:06;11.80;89.80
9941;DHT22;5009;50.656;7.188;2024-02-21T11:49:44;11.90;90.20
9941;DHT22;5009;50.656;7.188;2024-02-21T11:52:11;12.00;90.30
9941;DHT22;5009;50.656;7.188;2024-02-21T11:54:36;12.20;90.50
9941;DHT22;5009;50.656;7.188;2024-02-21T11:57:02;12.30;90.20
9941;DHT22;5009;50.656;7.188;2024-02-21T11:59:33;12.30;90.10
9941;DHT22;5009;50.656;7.188;2024-02-21T12:02:02;12.30;90.30
9941;DHT22;5009;50.656;7.188;2024-02-21T12:04:29;12.30;90.20
9941;DHT22;5009;50.656;7.188;2024-02-21T12:06:57;12.30;90.10
9941;DHT22;5009;50.656;7.188;2024-02-21T12:09:23;12.30;90.30
9941;DHT22;5009;50.656;7.188;2024-02-21T12:14:29;12.40;90.40
9941;DHT22;5009;50.656;7.188;2024-02-21T12:16:55;12.30;90.10
9941;DHT22;5009;50.656;7.188;2024-02-21T12:19:21;12.30;90.30
9941;DHT22;5009;50.656;7.188;2024-02-21T12:21:48;12.20;90.30
9941;DHT22;5009;50.656;7.188;2024-02-21T12:24:17;12.30;90.80
9941;DHT22;5009;50.656;7.188;2024-02-21T12:26:43;12.30;89.20
9941;DHT22;5009;50.656;7.188;2024-02-21T12:29:09;12.40;89.60
9941;DHT22;5009;50.656;7.188;2024-02-21T12:31:36;12.40;89.10
9941;DHT22;5009;50.656;7.188;2024-02-21T12:34:02;12.40;88.40
9941;DHT22;5009;50.656;7.188;2024-02-21T12:36:27;12.20;88.60
9941;DHT22;5009;50.656;7.188;2024-02-21T12:38:53;12.20;90.00
9941;DHT22;5009;50.656;7.188;2024-02-21T12:41:18;12.00;89.90
9941;DHT22;5009;50.656;7.188;2024-02-21T12:43:44;12.10;90.20
9941;DHT22;5009;50.656;7.188;2024-02-21T12:46:10;12.20;90.30
9941;DHT22;5009;50.656;7.188;2024-02-21T12:48:35;12.20;90.00
9941;DHT22;5009;50.656;7.188;2024-02-21T12:51:01;12.20;90.10
9941;DHT22;5009;50.656;7.188;2024-02-21T12:53:26;12.10;90.10
9941;DHT22;5009;50.656;7.188;2024-02-21T12:55:52;12.00;90.10
9941;DHT22;5009;50.656;7.188;2024-02-21T12:58:18;12.10;90.40
9941;DHT22;5009;50.656;7.188;2024-02-21T13:00:44;11.90;90.00
9941;DHT22;5009;50.656;7.188;2024-02-21T13:03:10;12.00;90.30
9941;DHT22;5009;50.656;7.188;2024-02-21T13:05:36;12.00;90.40
9941;DHT22;5009;50.656;7.188;2024-02-21T13:08:02;11.90;90.60
9941;DHT22;5009;50.656;7.188;2024-02-21T13:10:28;11.90;90.60
9941;DHT22;5009;50.656;7.188;2024-02-21T13:12:53;11.90;90.50
9941;DHT22;5009;50.656;7.188;2024-02-21T13:15:20;11.80;90.70
9941;DHT22;5009;50.656;7.188;2024-02-21T13:17:46;11.90;90.60
9941;DHT22;5009;50.656;7.188;2024-02-21T13:20:12;11.90;90.60
9941;DHT22;5009;50.656;7.188;2024-02-21T13:22:37;11.90;90.40
9941;DHT22;5009;50.656;7.188;2024-02-21T13:25:04;11.80;90.40
9941;DHT22;5009;50.656;7.188;2024-02-21T13:27:33;11.80;90.30
9941;DHT22;5009;50.656;7.188;2024-02-21T13:29:58;11.80;90.40
9941;DHT22;5009;50.656;7.188;2024-02-21T13:32:24;11.70;90.30
9941;DHT22;5009;50.656;7.188;2024-02-21T13:34:49;11.60;90.50
9941;DHT22;5009;50.656;7.188;2024-02-21T13:37:18;11.60;90.50
9941;DHT22;5009;50.656;7.188;2024-02-21T13:39:43;11.50;90.30
9941;DHT22;5009;50.656;7.188;2024-02-21T13:42:09;11.40;90.40
9941;DHT22;5009;50.656;7.188;2024-02-21T13:44:34;11.40;90.40
9941;DHT22;5009;50.656;7.188;2024-02-21T13:47:00;11.40;90.70
9941;DHT22;5009;50.656;7.188;2024-02-21T13:49:26;11.40;90.70
9941;DHT22;5009;50.656;7.188;2024-02-21T13:51:52;11.40;90.90
9941;DHT22;5009;50.656;7.188;2024-02-21T13:54:17;11.40;90.60
9941;DHT22;5009;50.656;7.188;2024-02-21T13:56:45;11.30;90.70
9941;DHT22;5009;50.656;7.188;2024-02-21T13:59:12;11.30;90.90
9941;DHT22;5009;50.656;7.188;2024-02-21T14:01:39;11.30;91.10
9941;DHT22;5009;50.656;7.188;2024-02-21T14:04:04;11.30;91.10
9941;DHT22;5009;50.656;7.188;2024-02-21T14:06:30;11.30;90.90
9941;DHT22;5009;50.656;7.188;2024-02-21T14:08:55;11.30;91.20
9941;DHT22;5009;50.656;7.188;2024-02-21T14:11:21;11.40;91.40
9941;DHT22;5009;50.656;7.188;2024-02-21T14:13:47;11.30;91.40
9941;DHT22;5009;50.656;7.188;2024-02-21T14:16:12;11.30;91.50
9941;DHT22;5009;50.656;7.188;2024-02-21T14:18:41;11.30;91.80
9941;DHT22;5009;50.656;7.188;2024-02-21T14:21:12;11.30;91.80
9941;DHT22;5009;50.656;7.188;2024-02-21T14:23:38;11.30;91.80
9941;DHT22;5009;50.656;7.188;2024-02-21T14:26:05;11.20;91.80
9941;DHT22;5009;50.656;7.188;2024-02-21T14:28:31;11.20;91.70
9941;DHT22;5009;50.656;7.188;2024-02-21T14:30:59;11.20;91.40
9941;DHT22;5009;50.656;7.188;2024-02-21T14:33:26;11.20;91.40
9941;DHT22;5009;50.656;7.188;2024-02-21T14:35:52;11.20;91.40
9941;DHT22;5009;50.656;7.188;2024-02-21T14:38:18;11.20;91.40
9941;DHT22;5009;50.656;7.188;2024-02-21T14:40:44;11.30;91.30
9941;DHT22;5009;50.656;7.188;2024-02-21T14:43:10;11.30;91.70
9941;DHT22;5009;50.656;7.188;2024-02-21T14:45:36;11.40;91.80
9941;DHT22;5009;50.656;7.188;2024-02-21T14:48:03;11.50;91.20
9941;DHT22;5009;50.656;7.188;2024-02-21T14:50:29;11.60;91.00
9941;DHT22;5009;50.656;7.188;2024-02-21T14:52:54;11.60;90.90
9941;DHT22;5009;50.656;7.188;2024-02-21T14:55:20;11.50;91.10
9941;DHT22;5009;50.656;7.188;2024-02-21T14:57:45;11.50;91.00
9941;DHT22;5009;50.656;7.188;2024-02-21T15:00:11;11.40;90.90
9941;DHT22;5009;50.656;7.188;2024-02-21T15:02:38;11.40;90.80
9941;DHT22;5009;50.656;7.188;2024-02-21T15:05:04;11.40;90.90
9941;DHT22;5009;50.656;7.188;2024-02-21T15:07:31;11.30;90.60
9941;DHT22;5009;50.656;7.188;2024-02-21T15:09:57;11.40;90.50
9941;DHT22;5009;50.656;7.188;2024-02-21T15:12:22;11.40;90.40
9941;DHT22;5009;50.656;7.188;2024-02-21T15:14:49;11.30;89.70
9941;DHT22;5009;50.656;7.188;2024-02-21T15:17:14;11.30;89.40
9941;DHT22;5009;50.656;7.188;2024-02-21T15:19:40;11.40;89.80
9941;DHT22;5009;50.656;7.188;2024-02-21T15:22:09;11.40;89.10
9941;DHT22;5009;50.656;7.188;2024-02-21T15:24:37;11.30;88.80
9941;DHT22;5009;50.656;7.188;2024-02-21T15:27:03;11.40;87.40
9941;DHT22;5009;50.656;7.188;2024-02-21T15:29:28;11.30;87.30
9941;DHT22;5009;50.656;7.188;2024-02-21T15:31:54;11.30;87.20
9941;DHT22;5009;50.656;7.188;2024-02-21T15:34:19;11.20;86.60
9941;DHT22;5009;50.656;7.188;2024-02-21T15:36:45;11.20;86.10
9941;DHT22;5009;50.656;7.188;2024-02-21T15:39:10;11.20;87.10
9941;DHT22;5009;50.656;7.188;2024-02-21T15:41:37;11.20;87.00
9941;DHT22;5009;50.656;7.188;2024-02-21T15:44:02;11.20;87.10
9941;DHT22;5009;50.656;7.188;2024-02-21T15:46:29;11.20;87.10
9941;DHT22;5009;50.656;7.188;2024-02-21T15:48:56;11.20;86.60
9941;DHT22;5009;50.656;7.188;2024-02-21T15:51:22;11.20;86.80
9941;DHT22;5009;50.656;7.188;2024-02-21T15:53:48;11.20;87.00
9941;DHT22;5009;50.656;7.188;2024-02-21T15:56:14;11.20;87.10
9941;DHT22;5009;50.656;7.188;2024-02-21T15:58:40;11.20;86.60
9941;DHT22;5009;50.656;7.188;2024-02-21T16:01:06;11.10;86.80
9941;DHT22;5009;50.656;7.188;2024-02-21T16:03:32;11.10;86.60
9941;DHT22;5009;50.656;7.188;2024-02-21T16:05:57;11.00;87.00
9941;DHT22;5009;50.656;7.188;2024-02-21T16:08:23;11.00;86.80
9941;DHT22;5009;50.656;7.188;2024-02-21T16:10:49;11.00;87.30
9941;DHT22;5009;50.656;7.188;2024-02-21T16:13:16;11.00;87.20
9941;DHT22;5009;50.656;7.188;2024-02-21T16:15:42;10.90;87.50
9941;DHT22;5009;50.656;7.188;2024-02-21T16:18:08;10.90;87.40
9941;DHT22;5009;50.656;7.188;2024-02-21T16:20:34;10.80;87.30
9941;DHT22;5009;50.656;7.188;2024-02-21T16:22:59;10.80;87.50
9941;DHT22;5009;50.656;7.188;2024-02-21T16:25:31;10.80;88.00
9941;DHT22;5009;50.656;7.188;2024-02-21T16:27:57;10.80;87.90
9941;DHT22;5009;50.656;7.188;2024-02-21T16:30:23;10.80;88.00
9941;DHT22;5009;50.656;7.188;2024-02-21T16:32:49;10.70;88.10
9941;DHT22;5009;50.656;7.188;2024-02-21T16:35:18;10.70;88.30
9941;DHT22;5009;50.656;7.188;2024-02-21T16:37:44;10.70;87.80
9941;DHT22;5009;50.656;7.188;2024-02-21T16:40:10;10.70;88.30
9941;DHT22;5009;50.656;7.188;2024-02-21T16:42:35;10.70;88.60
9941;DHT22;5009;50.656;7.188;2024-02-21T16:45:01;10.60;88.80
9941;DHT22;5009;50.656;7.188;2024-02-21T16:47:26;10.60;89.30
9941;DHT22;5009;50.656;7.188;2024-02-21T16:49:52;10.60;89.60
9941;DHT22;5009;50.656;7.188;2024-02-21T16:52:17;10.50;89.80
9941;DHT22;5009;50.656;7.188;2024-02-21T16:54:44;10.50;90.10
9941;DHT22;5009;50.656;7.188;2024-02-21T16:57:09;10.50;90.10
9941;DHT22;5009;50.656;7.188;2024-02-21T16:59:35;10.50;90.10
9941;DHT22;5009;50.656;7.188;2024-02-21T17:02:03;10.40;90.30
9941;DHT22;5009;50.656;7.188;2024-02-21T17:04:29;10.40;90.50
9941;DHT22;5009;50.656;7.188;2024-02-21T17:06:55;10.40;90.60
9941;DHT22;5009;50.656;7.188;2024-02-21T17:09:21;10.40;90.60
9941;DHT22;5009;50.656;7.188;2024-02-21T17:11:46;10.30;90.80
9941;DHT22;5009;50.656;7.188;2024-02-21T17:14:12;10.30;91.00
9941;DHT22;5009;50.656;7.188;2024-02-21T17:16:38;10.30;90.90
9941;DHT22;5009;50.656;7.188;2024-02-21T17:19:04;10.30;91.00
9941;DHT22;5009;50.656;7.188;2024-02-21T17:21:31;10.30;91.00
9941;DHT22;5009;50.656;7.188;2024-02-21T17:23:57;10.30;91.10
9941;DHT22;5009;50.656;7.188;2024-02-21T17:26:22;10.30;91.10
9941;DHT22;5009;50.656;7.188;2024-02-21T17:28:49;10.30;91.10
9941;DHT22;5009;50.656;7.188;2024-02-21T17:31:16;10.30;91.10
9941;DHT22;5009;50.656;7.188;2024-02-21T17:33:42;10.30;91.20
9941;DHT22;5009;50.656;7.188;2024-02-21T17:36:08;10.20;90.80
9941;DHT22;5009;50.656;7.188;2024-02-21T17:38:34;10.20;90.90
9941;DHT22;5009;50.656;7.188;2024-02-21T17:40:59;10.20;90.70
9941;DHT22;5009;50.656;7.188;2024-02-21T17:43:25;10.20;90.80
9941;DHT22;5009;50.656;7.188;2024-02-21T17:45:54;10.30;91.00
9941;DHT22;5009;50.656;7.188;2024-02-21T17:48:22;10.20;90.90
9941;DHT22;5009;50.656;7.188;2024-02-21T17:50:47;10.20;90.60
9941;DHT22;5009;50.656;7.188;2024-02-21T17:53:13;10.20;90.70
9941;DHT22;5009;50.656;7.188;2024-02-21T17:55:38;10.20;90.60
9941;DHT22;5009;50.656;7.188;2024-02-21T17:58:04;10.20;90.50
9941;DHT22;5009;50.656;7.188;2024-02-21T18:00:31;10.20;90.50
9941;DHT22;5009;50.656;7.188;2024-02-21T18:02:57;10.20;90.40
9941;DHT22;5009;50.656;7.188;2024-02-21T18:05:23;10.20;90.40
9941;DHT22;5009;50.656;7.188;2024-02-21T18:07:49;10.20;90.40
9941;DHT22;5009;50.656;7.188;2024-02-21T18:10:15;10.20;90.20
9941;DHT22;5009;50.656;7.188;2024-02-21T18:12:41;10.20;90.20
9941;DHT22;5009;50.656;7.188;2024-02-21T18:15:07;10.20;90.10
9941;DHT22;5009;50.656;7.188;2024-02-21T18:17:33;10.20;90.10
9941;DHT22;5009;50.656;7.188;2024-02-21T18:19:59;10.20;90.20
9941;DHT22;5009;50.656;7.188;2024-02-21T18:22:25;10.20;90.20
9941;DHT22;5009;50.656;7.188;2024-02-21T18:24:52;10.20;90.20
9941;DHT22;5009;50.656;7.188;2024-02-21T18:27:17;10.20;90.30
9941;DHT22;5009;50.656;7.188;2024-02-21T18:29:43;10.20;90.20
9941;DHT22;5009;50.656;7.188;2024-02-21T18:32:08;10.20;90.30
9941;DHT22;5009;50.656;7.188;2024-02-21T18:34:34;10.20;90.20
9941;DHT22;5009;50.656;7.188;2024-02-21T18:37:00;10.10;90.20
9941;DHT22;5009;50.656;7.188;2024-02-21T18:39:25;10.20;90.40
9941;DHT22;5009;50.656;7.188;2024-02-21T18:41:51;10.10;90.20
9941;DHT22;5009;50.656;7.188;2024-02-21T18:44:16;10.10;90.20
9941;DHT22;5009;50.656;7.188;2024-02-21T18:46:42;10.10;90.40
9941;DHT22;5009;50.656;7.188;2024-02-21T18:49:08;10.10;90.50
9941;DHT22;5009;50.656;7.188;2024-02-21T18:51:33;10.10;90.40
9941;DHT22;5009;50.656;7.188;2024-02-21T18:53:59;10.10;90.30
9941;DHT22;5009;50.656;7.188;2024-02-21T18:56:25;10.10;90.40
9941;DHT22;5009;50.656;7.188;2024-02-21T18:58:54;10.10;90.40
9941;DHT22;5009;50.656;7.188;2024-02-21T19:01:20;10.10;90.40
9941;DHT22;5009;50.656;7.188;2024-02-21T19:03:46;10.10;90.40
9941;DHT22;5009;50.656;7.188;2024-02-21T19:06:12;10.10;90.70
9941;DHT22;5009;50.656;7.188;2024-02-21T19:08:41;10.10;91.00
9941;DHT22;5009;50.656;7.188;2024-02-21T19:11:07;10.10;91.10
9941;DHT22;5009;50.656;7.188;2024-02-21T19:13:32;10.10;91.00
9941;DHT22;5009;50.656;7.188;2024-02-21T19:15:58;10.10;91.40
9941;DHT22;5009;50.656;7.188;2024-02-21T19:18:23;10.10;91.30
9941;DHT22;5009;50.656;7.188;2024-02-21T19:20:49;10.00;91.60
9941;DHT22;5009;50.656;7.188;2024-02-21T19:23:15;10.00;91.70
9941;DHT22;5009;50.656;7.188;2024-02-21T19:25:40;10.00;91.90
9941;DHT22;5009;50.656;7.188;2024-02-21T19:28:08;10.00;91.90
9941;DHT22;5009;50.656;7.188;2024-02-21T19:30:37;10.00;92.00
9941;DHT22;5009;50.656;7.188;2024-02-21T19:33:02;10.00;92.00
9941;DHT22;5009;50.656;7.188;2024-02-21T19:35:28;10.00;92.10
9941;DHT22;5009;50.656;7.188;2024-02-21T19:37:54;10.00;92.40
9941;DHT22;5009;50.656;7.188;2024-02-21T19:40:20;10.00;92.80
9941;DHT22;5009;50.656;7.188;2024-02-21T19:42:45;10.00;93.70
9941;DHT22;5009;50.656;7.188;2024-02-21T19:45:11;9.90;95.30
9941;DHT22;5009;50.656;7.188;2024-02-21T19:47:37;9.90;95.90
9941;DHT22;5009;50.656;7.188;2024-02-21T19:50:02;9.80;96.90
9941;DHT22;5009;50.656;7.188;2024-02-21T19:52:28;9.80;97.30
9941;DHT22;5009;50.656;7.188;2024-02-21T19:54:54;9.70;97.80
9941;DHT22;5009;50.656;7.188;2024-02-21T19:57:20;9.70;98.80
9941;DHT22;5009;50.656;7.188;2024-02-21T19:59:47;9.60;99.40
9941;DHT22;5009;50.656;7.188;2024-02-21T20:02:13;9.60;99.50
9941;DHT22;5009;50.656;7.188;2024-02-21T20:04:39;9.60;99.20
9941;DHT22;5009;50.656;7.188;2024-02-21T20:07:05;9.60;99.70
9941;DHT22;5009;50.656;7.188;2024-02-21T20:09:30;9.60;99.90
9941;DHT22;5009;50.656;7.188;2024-02-21T20:11:56;9.60;99.90
9941;DHT22;5009;50.656;7.188;2024-02-21T20:14:24;9.70;99.90
9941;DHT22;5009;50.656;7.188;2024-02-21T20:16:49;9.80;99.70
9941;DHT22;5009;50.656;7.188;2024-02-21T20:19:15;9.80;99.50
9941;DHT22;5009;50.656;7.188;2024-02-21T20:21:42;9.80;99.60
9941;DHT22;5009;50.656;7.188;2024-02-21T20:24:09;9.80;99.90
9941;DHT22;5009;50.656;7.188;2024-02-21T20:26:34;9.90;99.90
9941;DHT22;5009;50.656;7.188;2024-02-21T20:29:00;9.90;99.90
9941;DHT22;5009;50.656;7.188;2024-02-21T20:31:26;9.80;99.90
9941;DHT22;5009;50.656;7.188;2024-02-21T20:33:51;9.80;99.90
9941;DHT22;5009;50.656;7.188;2024-02-21T20:36:19;9.80;99.90
9941;DHT22;5009;50.656;7.188;2024-02-21T20:38:46;9.80;99.90
9941;DHT22;5009;50.656;7.188;2024-02-21T20:41:19;9.70;99.90
9941;DHT22;5009;50.656;7.188;2024-02-21T20:43:45;9.70;99.90
9941;DHT22;5009;50.656;7.188;2024-02-21T20:46:12;9.70;99.90
9941;DHT22;5009;50.656;7.188;2024-02-21T20:48:38;9.70;99.90
9941;DHT22;5009;50.656;7.188;2024-02-21T20:51:04;9.60;99.90
9941;DHT22;5009;50.656;7.188;2024-02-21T20:53:29;9.60;99.90
9941;DHT22;5009;50.656;7.188;2024-02-21T20:55:55;9.60;99.90
9941;DHT22;5009;50.656;7.188;2024-02-21T20:58:20;9.60;99.90
9941;DHT22;5009;50.656;7.188;2024-02-21T21:00:46;9.60;99.90
9941;DHT22;5009;50.656;7.188;2024-02-21T21:03:12;9.60;99.90
9941;DHT22;5009;50.656;7.188;2024-02-21T21:05:37;9.50;99.90